sensor_id;sensor_type;location;lat;lon;timestamp;temperature;humidity
9973;DHT22;5027;53.560;10.062;2023-03-29T00:01:19;10.80;1.00
9973;DHT22;5027;53.560;10.062;2023-03-29T00:04:03;10.90;1.00
9973;DHT22;5027;53.560;10.062;2023-03-29T00:06:30;10.80;1.00
9973;DHT22;5027;53.560;10.062;2023-03-29T00:08:59;10.80;1.00
9973;DHT22;5027;53.560;10.062;2023-03-29T00:11:27;10.70;1.00
9973;DHT22;5027;53.560;10.062;2023-03-29T00:13:53;10.50;1.00
9973;DHT22;5027;53.560;10.062;2023-03-29T00:16:20;10.70;1.00
9973;DHT22;5027;53.560;10.062;2023-03-29T00:18:49;10.70;1.00
9973;DHT22;5027;53.560;10.062;2023-03-29T00:21:16;10.60;1.00
9973;DHT22;5027;53.560;10.062;2023-03-29T00:23:42;10.50;1.00
9973;DHT22;5027;53.560;10.062;2023-03-29T00:26:09;10.40;1.00
9973;DHT22;5027;53.560;10.062;2023-03-29T00:28:36;10.50;1.00
9973;DHT22;5027;53.560;10.062;2023-03-29T00:31:11;10.70;1.00
9973;DHT22;5027;53.560;10.062;2023-03-29T00:33:39;10.70;1.00
9973;DHT22;5027;53.560;10.062;2023-03-29T00:36:07;10.70;1.00
9973;DHT22;5027;53.560;10.062;2023-03-29T00:38:34;10.60;1.00
9973;DHT22;5027;53.560;10.062;2023-03-29T00:41:02;10.60;1.00
9973;DHT22;5027;53.560;10.062;2023-03-29T00:43:29;10.70;1.00
9973;DHT22;5027;53.560;10.062;2023-03-29T00:45:56;10.80;1.00
9973;DHT22;5027;53.560;10.062;2023-03-29T00:48:25;10.90;1.00
9973;DHT22;5027;53.560;10.062;2023-03-29T00:50:56;11.00;1.00
9973;DHT22;5027;53.560;10.062;2023-03-29T00:53:30;10.90;1.00
9973;DHT22;5027;53.560;10.062;2023-03-29T00:58:38;11.00;1.00
9973;DHT22;5027;53.560;10.062;2023-03-29T01:01:15;11.00;1.00
9973;DHT22;5027;53.560;10.062;2023-03-29T01:03:49;11.00;1.00
9973;DHT22;5027;53.560;10.062;2023-03-29T01:06:23;11.00;1.00
9973;DHT22;5027;53.560;10.062;2023-03-29T01:08:53;11.00;1.00
9973;DHT22;5027;53.560;10.062;2023-03-29T01:11:32;11.00;1.00
9973;DHT22;5027;53.560;10.062;2023-03-29T01:14:01;11.00;1.00
9973;DHT22;5027;53.560;10.062;2023-03-29T01:16:30;11.00;1.00
9973;DHT22;5027;53.560;10.062;2023-03-29T01:18:59;11.00;1.00
9973;DHT22;5027;53.560;10.062;2023-03-29T01:21:32;10.90;1.00
9973;DHT22;5027;53.560;10.062;2023-03-29T01:24:27;10.90;1.00
9973;DHT22;5027;53.560;10.062;2023-03-29T01:27:32;11.00;1.00
9973;DHT22;5027;53.560;10.062;2023-03-29T01:30:10;10.90;1.00
9973;DHT22;5027;53.560;10.062;2023-03-29T01:32:45;11.00;1.00
9973;DHT22;5027;53.560;10.062;2023-03-29T01:38:14;10.90;1.00
9973;DHT22;5027;53.560;10.062;2023-03-29T01:40:42;10.90;1.00
9973;DHT22;5027;53.560;10.062;2023-03-29T01:43:35;10.90;1.00
9973;DHT22;5027;53.560;10.062;2023-03-29T01:46:21;10.90;1.00
9973;DHT22;5027;53.560;10.062;2023-03-29T01:48:49;10.90;1.00
9973;DHT22;5027;53.560;10.062;2023-03-29T01:51:24;10.80;1.00
9973;DHT22;5027;53.560;10.062;2023-03-29T01:54:00;10.80;1.00
9973;DHT22;5027;53.560;10.062;2023-03-29T01:56:28;10.80;1.00
9973;DHT22;5027;53.560;10.062;2023-03-29T01:59:01;10.80;1.00
9973;DHT22;5027;53.560;10.062;2023-03-29T02:01:34;10.80;1.00
9973;DHT22;5027;53.560;10.062;2023-03-29T02:04:09;10.80;1.00
9973;DHT22;5027;53.560;10.062;2023-03-29T02:06:39;10.70;1.00
9973;DHT22;5027;53.560;10.062;2023-03-29T02:09:07;10.70;1.00
9973;DHT22;5027;53.560;10.062;2023-03-29T02:11:35;10.70;1.00
9973;DHT22;5027;53.560;10.062;2023-03-29T02:14:01;10.80;1.00
9973;DHT22;5027;53.560;10.062;2023-03-29T02:16:34;10.80;1.00
9973;DHT22;5027;53.560;10.062;2023-03-29T02:19:02;10.70;1.00
9973;DHT22;5027;53.560;10.062;2023-03-29T02:21:35;10.70;1.00
9973;DHT22;5027;53.560;10.062;2023-03-29T02:24:09;10.70;1.00
9973;DHT22;5027;53.560;10.062;2023-03-29T02:26:39;10.70;1.00
9973;DHT22;5027;53.560;10.062;2023-03-29T02:29:06;10.70;1.00
9973;DHT22;5027;53.560;10.062;2023-03-29T02:31:41;10.70;1.00
9973;DHT22;5027;53.560;10.062;2023-03-29T02:37:06;10.60;1.00
9973;DHT22;5027;53.560;10.062;2023-03-29T02:39:36;10.70;1.00
9973;DHT22;5027;53.560;10.062;2023-03-29T02:42:04;10.60;1.00
9973;DHT22;5027;53.560;10.062;2023-03-29T02:44:34;10.60;1.00
9973;DHT22;5027;53.560;10.062;2023-03-29T02:47:07;10.60;1.00
9973;DHT22;5027;53.560;10.062;2023-03-29T02:49:38;10.60;1.00
9973;DHT22;5027;53.560;10.062;2023-03-29T02:52:10;10.60;1.00
9973;DHT22;5027;53.560;10.062;2023-03-29T02:54:39;10.60;1.00
9973;DHT22;5027;53.560;10.062;2023-03-29T02:57:09;10.60;1.00
9973;DHT22;5027;53.560;10.062;2023-03-29T02:59:36;10.60;1.00
9973;DHT22;5027;53.560;10.062;2023-03-29T03:02:04;10.60;1.00
9973;DHT22;5027;53.560;10.062;2023-03-29T03:04:32;10.60;1.00
9973;DHT22;5027;53.560;10.062;2023-03-29T03:07:01;10.60;1.00
9973;DHT22;5027;53.560;10.062;2023-03-29T03:09:30;10.60;1.00
9973;DHT22;5027;53.560;10.062;2023-03-29T03:11:57;10.60;1.00
9973;DHT22;5027;53.560;10.062;2023-03-29T03:14:24;10.50;1.00
9973;DHT22;5027;53.560;10.062;2023-03-29T03:16:51;10.60;1.00
9973;DHT22;5027;53.560;10.062;2023-03-29T03:19:18;10.60;1.00
9973;DHT22;5027;53.560;10.062;2023-03-29T03:21:45;10.50;1.00
9973;DHT22;5027;53.560;10.062;2023-03-29T03:24:13;10.50;1.00
9973;DHT22;5027;53.560;10.062;2023-03-29T03:26:41;10.50;1.00
9973;DHT22;5027;53.560;10.062;2023-03-29T03:29:07;10.50;1.00
9973;DHT22;5027;53.560;10.062;2023-03-29T03:32:07;10.50;1.00
9973;DHT22;5027;53.560;10.062;2023-03-29T03:35:11;10.50;1.00
9973;DHT22;5027;53.560;10.062;2023-03-29T03:37:39;10.50;1.00
9973;DHT22;5027;53.560;10.062;2023-03-29T03:40:08;10.50;1.00
9973;DHT22;5027;53.560;10.062;2023-03-29T03:42:34;10.50;1.00
9973;DHT22;5027;53.560;10.062;2023-03-29T03:45:01;10.50;1.00
9973;DHT22;5027;53.560;10.062;2023-03-29T03:47:50;10.50;1.00
9973;DHT22;5027;53.560;10.062;2023-03-29T03:50:35;10.50;1.00
9973;DHT22;5027;53.560;10.062;2023-03-29T03:53:03;10.50;1.00
9973;DHT22;5027;53.560;10.062;2023-03-29T03:55:52;10.50;1.00
9973;DHT22;5027;53.560;10.062;2023-03-29T03:58:22;10.40;1.00
9973;DHT22;5027;53.560;10.062;2023-03-29T04:00:50;10.40;1.00
9973;DHT22;5027;53.560;10.062;2023-03-29T04:03:33;10.40;1.00
9973;DHT22;5027;53.560;10.062;2023-03-29T04:06:02;10.40;1.00
9973;DHT22;5027;53.560;10.062;2023-03-29T04:08:45;10.40;1.00
9973;DHT22;5027;53.560;10.062;2023-03-29T04:11:23;10.40;1.00
9973;DHT22;5027;53.560;10.062;2023-03-29T04:13:51;10.40;1.00
9973;DHT22;5027;53.560;10.062;2023-03-29T04:16:30;10.40;1.00
9973;DHT22;5027;53.560;10.062;2023-03-29T04:19:08;10.40;1.00
9973;DHT22;5027;53.560;10.062;2023-03-29T04:21:35;10.50;1.00
9973;DHT22;5027;53.560;10.062;2023-03-29T04:24:02;10.40;1.00
9973;DHT22;5027;53.560;10.062;2023-03-29T04:26:30;10.50;1.00
9973;DHT22;5027;53.560;10.062;2023-03-29T04:29:06;10.50;1.00
9973;DHT22;5027;53.560;10.062;2023-03-29T04:31:45;10.50;1.00
9973;DHT22;5027;53.560;10.062;2023-03-29T04:34:18;10.50;1.00
9973;DHT22;5027;53.560;10.062;2023-03-29T04:36:46;10.40;1.00
9973;DHT22;5027;53.560;10.062;2023-03-29T04:39:19;10.30;1.00
9973;DHT22;5027;53.560;10.062;2023-03-29T04:41:51;10.40;1.00
9973;DHT22;5027;53.560;10.062;2023-03-29T04:44:21;10.40;1.00
9973;DHT22;5027;53.560;10.062;2023-03-29T04:46:49;10.40;1.00
9973;DHT22;5027;53.560;10.062;2023-03-29T04:49:34;10.40;1.00
9973;DHT22;5027;53.560;10.062;2023-03-29T04:52:01;10.40;1.00
9973;DHT22;5027;53.560;10.062;2023-03-29T04:54:29;10.40;1.00
9973;DHT22;5027;53.560;10.062;2023-03-29T04:57:10;10.40;1.00
9973;DHT22;5027;53.560;10.062;2023-03-29T05:00:04;10.40;1.00
9973;DHT22;5027;53.560;10.062;2023-03-29T05:02:59;10.40;1.00
9973;DHT22;5027;53.560;10.062;2023-03-29T05:05:28;10.40;1.00
9973;DHT22;5027;53.560;10.062;2023-03-29T05:07:58;10.40;1.00
9973;DHT22;5027;53.560;10.062;2023-03-29T05:10:32;10.30;1.00
9973;DHT22;5027;53.560;10.062;2023-03-29T05:12:58;10.30;1.00
9973;DHT22;5027;53.560;10.062;2023-03-29T05:15:26;10.30;1.00
9973;DHT22;5027;53.560;10.062;2023-03-29T05:17:53;10.40;1.00
9973;DHT22;5027;53.560;10.062;2023-03-29T05:20:20;10.30;1.00
9973;DHT22;5027;53.560;10.062;2023-03-29T05:22:48;10.10;1.00
9973;DHT22;5027;53.560;10.062;2023-03-29T05:25:38;10.10;1.00
9973;DHT22;5027;53.560;10.062;2023-03-29T05:28:06;10.10;1.00
9973;DHT22;5027;53.560;10.062;2023-03-29T05:30:33;10.10;1.00
9973;DHT22;5027;53.560;10.062;2023-03-29T05:33:08;10.20;1.00
9973;DHT22;5027;53.560;10.062;2023-03-29T05:35:36;10.20;1.00
9973;DHT22;5027;53.560;10.062;2023-03-29T05:38:06;10.20;1.00
9973;DHT22;5027;53.560;10.062;2023-03-29T05:40:33;10.20;1.00
9973;DHT22;5027;53.560;10.062;2023-03-29T05:43:27;10.20;1.00
9973;DHT22;5027;53.560;10.062;2023-03-29T05:45:55;10.20;1.00
9973;DHT22;5027;53.560;10.062;2023-03-29T05:48:22;10.20;1.00
9973;DHT22;5027;53.560;10.062;2023-03-29T05:50:51;10.20;1.00
9973;DHT22;5027;53.560;10.062;2023-03-29T05:53:19;10.20;1.00
9973;DHT22;5027;53.560;10.062;2023-03-29T05:55:47;10.10;1.00
9973;DHT22;5027;53.560;10.062;2023-03-29T05:58:17;10.10;1.00
9973;DHT22;5027;53.560;10.062;2023-03-29T06:00:48;10.20;1.00
9973;DHT22;5027;53.560;10.062;2023-03-29T06:03:32;10.20;1.00
9973;DHT22;5027;53.560;10.062;2023-03-29T06:06:01;10.10;1.00
9973;DHT22;5027;53.560;10.062;2023-03-29T06:08:29;10.10;1.00
9973;DHT22;5027;53.560;10.062;2023-03-29T06:11:07;10.10;1.00
9973;DHT22;5027;53.560;10.062;2023-03-29T06:13:57;10.00;1.00
9973;DHT22;5027;53.560;10.062;2023-03-29T06:16:24;10.00;1.00
9973;DHT22;5027;53.560;10.062;2023-03-29T06:18:51;10.00;1.00
9973;DHT22;5027;53.560;10.062;2023-03-29T06:21:18;10.10;1.00
9973;DHT22;5027;53.560;10.062;2023-03-29T06:23:45;9.90;1.00
9973;DHT22;5027;53.560;10.062;2023-03-29T06:26:14;10.00;1.00
9973;DHT22;5027;53.560;10.062;2023-03-29T06:28:41;10.00;1.00
9973;DHT22;5027;53.560;10.062;2023-03-29T06:31:08;10.10;1.00
9973;DHT22;5027;53.560;10.062;2023-03-29T06:33:38;10.10;1.00
9973;DHT22;5027;53.560;10.062;2023-03-29T06:36:20;10.20;1.00
9973;DHT22;5027;53.560;10.062;2023-03-29T06:38:47;10.30;1.00
9973;DHT22;5027;53.560;10.062;2023-03-29T06:41:21;10.30;1.00
9973;DHT22;5027;53.560;10.062;2023-03-29T06:44:15;10.30;1.00
9973;DHT22;5027;53.560;10.062;2023-03-29T06:46:57;10.40;1.00
9973;DHT22;5027;53.560;10.062;2023-03-29T06:49:24;10.20;1.00
9973;DHT22;5027;53.560;10.062;2023-03-29T06:52:09;10.20;1.00
9973;DHT22;5027;53.560;10.062;2023-03-29T06:54:39;10.40;1.00
9973;DHT22;5027;53.560;10.062;2023-03-29T06:57:06;10.40;1.00
9973;DHT22;5027;53.560;10.062;2023-03-29T06:59:33;10.40;1.00
9973;DHT22;5027;53.560;10.062;2023-03-29T07:02:11;10.50;1.00
9973;DHT22;5027;53.560;10.062;2023-03-29T07:04:53;10.50;1.00
9973;DHT22;5027;53.560;10.062;2023-03-29T07:07:29;10.30;1.00
9973;DHT22;5027;53.560;10.062;2023-03-29T07:10:34;10.30;1.00
9973;DHT22;5027;53.560;10.062;2023-03-29T07:13:29;10.40;1.00
9973;DHT22;5027;53.560;10.062;2023-03-29T07:15:58;10.50;1.00
9973;DHT22;5027;53.560;10.062;2023-03-29T07:18:51;10.50;1.00
9973;DHT22;5027;53.560;10.062;2023-03-29T07:21:32;10.50;1.00
9973;DHT22;5027;53.560;10.062;2023-03-29T07:24:04;10.50;1.00
9973;DHT22;5027;53.560;10.062;2023-03-29T07:26:33;10.50;1.00
9973;DHT22;5027;53.560;10.062;2023-03-29T07:29:00;10.50;1.00
9973;DHT22;5027;53.560;10.062;2023-03-29T07:31:27;10.50;1.00
9973;DHT22;5027;53.560;10.062;2023-03-29T07:34:18;10.60;1.00
9973;DHT22;5027;53.560;10.062;2023-03-29T07:36:45;10.60;1.00
9973;DHT22;5027;53.560;10.062;2023-03-29T07:39:13;10.60;1.00
9973;DHT22;5027;53.560;10.062;2023-03-29T07:41:56;10.50;1.00
9973;DHT22;5027;53.560;10.062;2023-03-29T07:44:24;10.40;1.00
9973;DHT22;5027;53.560;10.062;2023-03-29T07:46:53;10.40;1.00
9973;DHT22;5027;53.560;10.062;2023-03-29T07:49:20;10.20;1.00
9973;DHT22;5027;53.560;10.062;2023-03-29T07:51:47;10.10;1.00
9973;DHT22;5027;53.560;10.062;2023-03-29T07:54:14;10.20;1.00
9973;DHT22;5027;53.560;10.062;2023-03-29T07:57:06;10.30;1.00
9973;DHT22;5027;53.560;10.062;2023-03-29T07:59:40;10.30;1.00
9973;DHT22;5027;53.560;10.062;2023-03-29T08:02:11;10.30;1.00
9973;DHT22;5027;53.560;10.062;2023-03-29T08:04:42;10.40;1.00
9973;DHT22;5027;53.560;10.062;2023-03-29T08:07:17;10.30;1.00
9973;DHT22;5027;53.560;10.062;2023-03-29T08:10:14;10.50;1.00
9973;DHT22;5027;53.560;10.062;2023-03-29T08:12:59;10.60;1.00
9973;DHT22;5027;53.560;10.062;2023-03-29T08:15:38;10.70;1.00
9973;DHT22;5027;53.560;10.062;2023-03-29T08:18:14;10.60;1.00
9973;DHT22;5027;53.560;10.062;2023-03-29T08:20:41;10.50;1.00
9973;DHT22;5027;53.560;10.062;2023-03-29T08:23:09;10.30;1.00
9973;DHT22;5027;53.560;10.062;2023-03-29T08:25:41;10.40;1.00
9973;DHT22;5027;53.560;10.062;2023-03-29T08:28:09;10.50;1.00
9973;DHT22;5027;53.560;10.062;2023-03-29T08:30:44;10.70;1.00
9973;DHT22;5027;53.560;10.062;2023-03-29T08:33:11;10.70;1.00
9973;DHT22;5027;53.560;10.062;2023-03-29T08:35:39;10.70;1.00
9973;DHT22;5027;53.560;10.062;2023-03-29T08:38:17;10.70;1.00
9973;DHT22;5027;53.560;10.062;2023-03-29T08:40:47;10.60;1.00
9973;DHT22;5027;53.560;10.062;2023-03-29T08:43:20;10.70;1.00
9973;DHT22;5027;53.560;10.062;2023-03-29T08:48:55;10.60;1.00
9973;DHT22;5027;53.560;10.062;2023-03-29T08:51:37;10.60;1.00
9973;DHT22;5027;53.560;10.062;2023-03-29T08:54:14;10.70;1.00
9973;DHT22;5027;53.560;10.062;2023-03-29T08:57:06;10.50;1.00
9973;DHT22;5027;53.560;10.062;2023-03-29T08:59:41;10.80;1.00
9973;DHT22;5027;53.560;10.062;2023-03-29T09:02:16;10.70;1.00
9973;DHT22;5027;53.560;10.062;2023-03-29T09:04:49;10.80;1.00
9973;DHT22;5027;53.560;10.062;2023-03-29T09:07:40;11.00;1.00
9973;DHT22;5027;53.560;10.062;2023-03-29T09:10:13;11.00;1.00
9973;DHT22;5027;53.560;10.062;2023-03-29T09:15:31;10.80;1.00
9973;DHT22;5027;53.560;10.062;2023-03-29T09:18:31;10.90;1.00
9973;DHT22;5027;53.560;10.062;2023-03-29T09:24:27;11.10;1.00
9973;DHT22;5027;53.560;10.062;2023-03-29T09:32:50;11.20;1.00
9973;DHT22;5027;53.560;10.062;2023-03-29T09:37:57;11.00;1.00
9973;DHT22;5027;53.560;10.062;2023-03-29T09:40:33;11.10;1.00
9973;DHT22;5027;53.560;10.062;2023-03-29T09:43:12;11.20;1.00
9973;DHT22;5027;53.560;10.062;2023-03-29T09:45:40;11.20;1.00
9973;DHT22;5027;53.560;10.062;2023-03-29T09:48:16;11.10;1.00
9973;DHT22;5027;53.560;10.062;2023-03-29T09:50:50;11.00;1.00
9973;DHT22;5027;53.560;10.062;2023-03-29T09:53:20;11.10;1.00
9973;DHT22;5027;53.560;10.062;2023-03-29T09:55:56;11.20;1.00
9973;DHT22;5027;53.560;10.062;2023-03-29T09:58:41;11.20;1.00
9973;DHT22;5027;53.560;10.062;2023-03-29T10:01:13;11.00;1.00
9973;DHT22;5027;53.560;10.062;2023-03-29T10:03:41;10.90;1.00
9973;DHT22;5027;53.560;10.062;2023-03-29T10:06:15;10.90;1.00
9973;DHT22;5027;53.560;10.062;2023-03-29T10:08:52;11.10;1.00
9973;DHT22;5027;53.560;10.062;2023-03-29T10:11:33;11.10;1.00
9973;DHT22;5027;53.560;10.062;2023-03-29T10:14:03;11.10;1.00
9973;DHT22;5027;53.560;10.062;2023-03-29T10:16:37;11.20;1.00
9973;DHT22;5027;53.560;10.062;2023-03-29T10:19:15;11.20;1.00
9973;DHT22;5027;53.560;10.062;2023-03-29T10:21:42;11.30;1.00
9973;DHT22;5027;53.560;10.062;2023-03-29T10:24:09;11.50;1.00
9973;DHT22;5027;53.560;10.062;2023-03-29T10:26:36;11.50;1.00
9973;DHT22;5027;53.560;10.062;2023-03-29T10:29:05;11.30;1.00
9973;DHT22;5027;53.560;10.062;2023-03-29T10:31:32;11.30;1.00
9973;DHT22;5027;53.560;10.062;2023-03-29T10:34:04;11.20;1.00
9973;DHT22;5027;53.560;10.062;2023-03-29T10:36:32;11.30;1.00
9973;DHT22;5027;53.560;10.062;2023-03-29T10:39:01;11.40;1.00
9973;DHT22;5027;53.560;10.062;2023-03-29T10:41:32;11.40;1.00
9973;DHT22;5027;53.560;10.062;2023-03-29T10:44:01;11.40;1.00
9973;DHT22;5027;53.560;10.062;2023-03-29T10:46:38;11.50;1.00
9973;DHT22;5027;53.560;10.062;2023-03-29T10:49:16;11.60;1.00
9973;DHT22;5027;53.560;10.062;2023-03-29T10:51:45;11.50;1.00
9973;DHT22;5027;53.560;10.062;2023-03-29T10:54:14;11.70;1.00
9973;DHT22;5027;53.560;10.062;2023-03-29T10:56:54;11.50;1.00
9973;DHT22;5027;53.560;10.062;2023-03-29T10:59:45;11.40;1.00
9973;DHT22;5027;53.560;10.062;2023-03-29T11:08:18;11.40;1.00
9973;DHT22;5027;53.560;10.062;2023-03-29T11:13:39;11.20;1.00
9973;DHT22;5027;53.560;10.062;2023-03-29T11:22:12;11.30;1.00
9973;DHT22;5027;53.560;10.062;2023-03-29T11:27:40;11.50;1.00
9973;DHT22;5027;53.560;10.062;2023-03-29T11:30:36;11.60;1.00
9973;DHT22;5027;53.560;10.062;2023-03-29T11:39:12;11.30;1.00
9973;DHT22;5027;53.560;10.062;2023-03-29T11:41:44;11.30;1.00
9973;DHT22;5027;53.560;10.062;2023-03-29T11:44:29;11.30;1.00
9973;DHT22;5027;53.560;10.062;2023-03-29T11:49:39;11.50;1.00
9973;DHT22;5027;53.560;10.062;2023-03-29T11:52:24;11.50;1.00
9973;DHT22;5027;53.560;10.062;2023-03-29T11:57:50;11.50;64.90
9973;DHT22;5027;53.560;10.062;2023-03-29T12:00:31;11.40;90.20
9973;DHT22;5027;53.560;10.062;2023-03-29T12:03:18;11.40;99.90
9973;DHT22;5027;53.560;10.062;2023-03-29T12:05:51;11.70;99.90
9973;DHT22;5027;53.560;10.062;2023-03-29T12:08:24;11.90;97.80
9973;DHT22;5027;53.560;10.062;2023-03-29T12:11:02;11.90;96.90
9973;DHT22;5027;53.560;10.062;2023-03-29T12:13:35;11.90;89.70
9973;DHT22;5027;53.560;10.062;2023-03-29T12:17:04;11.70;93.80
9973;DHT22;5027;53.560;10.062;2023-03-29T12:19:07;11.70;99.90
9973;DHT22;5027;53.560;10.062;2023-03-29T12:21:39;11.80;99.90
9973;DHT22;5027;53.560;10.062;2023-03-29T12:24:11;11.90;99.90
9973;DHT22;5027;53.560;10.062;2023-03-29T12:38:20;11.90;99.90
9973;DHT22;5027;53.560;10.062;2023-03-29T12:41:18;11.90;99.90
9973;DHT22;5027;53.560;10.062;2023-03-29T12:44:00;12.00;99.90
9973;DHT22;5027;53.560;10.062;2023-03-29T12:46:53;11.90;99.90
9973;DHT22;5027;53.560;10.062;2023-03-29T12:49:28;11.90;99.90
9973;DHT22;5027;53.560;10.062;2023-03-29T12:51:58;11.90;99.90
9973;DHT22;5027;53.560;10.062;2023-03-29T12:54:31;11.80;99.90
9973;DHT22;5027;53.560;10.062;2023-03-29T12:57:27;11.90;99.90
9973;DHT22;5027;53.560;10.062;2023-03-29T13:00:24;11.80;99.90
9973;DHT22;5027;53.560;10.062;2023-03-29T13:06:10;12.00;99.90
9973;DHT22;5027;53.560;10.062;2023-03-29T13:08:39;12.00;99.90
9973;DHT22;5027;53.560;10.062;2023-03-29T13:11:32;12.10;99.90
9973;DHT22;5027;53.560;10.062;2023-03-29T13:14:15;12.00;99.90
9973;DHT22;5027;53.560;10.062;2023-03-29T13:16:44;12.10;99.90
9973;DHT22;5027;53.560;10.062;2023-03-29T13:19:30;12.20;99.90
9973;DHT22;5027;53.560;10.062;2023-03-29T13:25:08;12.10;99.90
9973;DHT22;5027;53.560;10.062;2023-03-29T13:30:57;12.20;99.90
9973;DHT22;5027;53.560;10.062;2023-03-29T13:33:34;12.30;99.90
9973;DHT22;5027;53.560;10.062;2023-03-29T13:38:45;12.30;99.90
9973;DHT22;5027;53.560;10.062;2023-03-29T13:44:27;12.30;45.70
9973;DHT22;5027;53.560;10.062;2023-03-29T13:49:38;12.30;99.90
9973;DHT22;5027;53.560;10.062;2023-03-29T13:52:15;12.30;99.90
9973;DHT22;5027;53.560;10.062;2023-03-29T13:58:53;12.30;99.90
9973;DHT22;5027;53.560;10.062;2023-03-29T14:00:59;12.30;99.90
9973;DHT22;5027;53.560;10.062;2023-03-29T14:03:26;12.40;99.90
9973;DHT22;5027;53.560;10.062;2023-03-29T14:05:58;12.40;99.90
9973;DHT22;5027;53.560;10.062;2023-03-29T14:08:29;12.50;99.90
9973;DHT22;5027;53.560;10.062;2023-03-29T14:11:03;12.50;99.90
9973;DHT22;5027;53.560;10.062;2023-03-29T14:13:30;12.50;99.90
9973;DHT22;5027;53.560;10.062;2023-03-29T14:16:01;12.50;99.90
9973;DHT22;5027;53.560;10.062;2023-03-29T14:18:33;12.40;99.90
9973;DHT22;5027;53.560;10.062;2023-03-29T14:21:02;12.70;99.90
9973;DHT22;5027;53.560;10.062;2023-03-29T14:23:32;12.70;99.90
9973;DHT22;5027;53.560;10.062;2023-03-29T14:28:50;12.70;99.90
9973;DHT22;5027;53.560;10.062;2023-03-29T14:31:25;12.80;99.90
9973;DHT22;5027;53.560;10.062;2023-03-29T14:33:57;12.80;99.90
9973;DHT22;5027;53.560;10.062;2023-03-29T14:36:26;12.70;99.90
9973;DHT22;5027;53.560;10.062;2023-03-29T14:38:56;12.60;99.90
9973;DHT22;5027;53.560;10.062;2023-03-29T14:41:32;12.50;99.90
9973;DHT22;5027;53.560;10.062;2023-03-29T14:43:59;12.50;99.90
9973;DHT22;5027;53.560;10.062;2023-03-29T14:46:28;12.50;99.90
9973;DHT22;5027;53.560;10.062;2023-03-29T14:48:56;12.60;99.90
9973;DHT22;5027;53.560;10.062;2023-03-29T14:51:24;12.50;99.90
9973;DHT22;5027;53.560;10.062;2023-03-29T14:53:54;12.40;99.90
9973;DHT22;5027;53.560;10.062;2023-03-29T14:56:22;12.30;99.90
9973;DHT22;5027;53.560;10.062;2023-03-29T14:58:55;12.30;99.90
9973;DHT22;5027;53.560;10.062;2023-03-29T15:01:24;12.40;99.90
9973;DHT22;5027;53.560;10.062;2023-03-29T15:04:03;12.40;99.90
9973;DHT22;5027;53.560;10.062;2023-03-29T15:06:35;12.50;99.90
9973;DHT22;5027;53.560;10.062;2023-03-29T15:09:03;12.60;99.90
9973;DHT22;5027;53.560;10.062;2023-03-29T15:11:33;12.60;99.90
9973;DHT22;5027;53.560;10.062;2023-03-29T15:14:04;12.60;99.90
9973;DHT22;5027;53.560;10.062;2023-03-29T15:16:32;12.70;99.90
9973;DHT22;5027;53.560;10.062;2023-03-29T15:18:59;12.60;99.90
9973;DHT22;5027;53.560;10.062;2023-03-29T15:21:34;12.50;99.90
9973;DHT22;5027;53.560;10.062;2023-03-29T15:24:03;12.50;99.90
9973;DHT22;5027;53.560;10.062;2023-03-29T15:26:34;12.40;99.90
9973;DHT22;5027;53.560;10.062;2023-03-29T15:31:35;12.50;99.90
9973;DHT22;5027;53.560;10.062;2023-03-29T15:34:10;12.50;99.90
9973;DHT22;5027;53.560;10.062;2023-03-29T15:36:39;12.40;99.90
9973;DHT22;5027;53.560;10.062;2023-03-29T15:39:12;12.40;99.90
9973;DHT22;5027;53.560;10.062;2023-03-29T15:41:40;12.40;99.90
9973;DHT22;5027;53.560;10.062;2023-03-29T15:44:08;12.40;99.90
9973;DHT22;5027;53.560;10.062;2023-03-29T15:46:35;12.40;99.90
9973;DHT22;5027;53.560;10.062;2023-03-29T15:49:02;12.50;99.90
9973;DHT22;5027;53.560;10.062;2023-03-29T15:51:30;12.50;99.90
9973;DHT22;5027;53.560;10.062;2023-03-29T15:53:57;12.40;99.90
9973;DHT22;5027;53.560;10.062;2023-03-29T15:56:24;12.40;99.90
9973;DHT22;5027;53.560;10.062;2023-03-29T15:58:52;12.50;99.90
9973;DHT22;5027;53.560;10.062;2023-03-29T16:01:32;12.50;99.90
9973;DHT22;5027;53.560;10.062;2023-03-29T16:06:31;12.50;99.90
9973;DHT22;5027;53.560;10.062;2023-03-29T16:08:59;12.50;99.90
9973;DHT22;5027;53.560;10.062;2023-03-29T16:11:25;12.60;99.90
9973;DHT22;5027;53.560;10.062;2023-03-29T16:13:54;12.50;99.90
9973;DHT22;5027;53.560;10.062;2023-03-29T16:16:22;12.50;99.90
9973;DHT22;5027;53.560;10.062;2023-03-29T16:18:49;12.50;99.90
9973;DHT22;5027;53.560;10.062;2023-03-29T16:21:17;12.50;99.90
9973;DHT22;5027;53.560;10.062;2023-03-29T16:23:45;12.50;99.90
9973;DHT22;5027;53.560;10.062;2023-03-29T16:26:14;12.50;99.90
9973;DHT22;5027;53.560;10.062;2023-03-29T16:28:42;12.50;99.90
9973;DHT22;5027;53.560;10.062;2023-03-29T16:31:10;12.50;99.90
9973;DHT22;5027;53.560;10.062;2023-03-29T16:33:38;12.50;99.90
9973;DHT22;5027;53.560;10.062;2023-03-29T16:36:06;12.50;99.90
9973;DHT22;5027;53.560;10.062;2023-03-29T16:38:33;12.40;99.90
9973;DHT22;5027;53.560;10.062;2023-03-29T16:41:00;12.40;99.90
9973;DHT22;5027;53.560;10.062;2023-03-29T16:43:27;12.40;99.90
9973;DHT22;5027;53.560;10.062;2023-03-29T16:45:54;12.40;99.90
9973;DHT22;5027;53.560;10.062;2023-03-29T16:48:21;12.40;99.90
9973;DHT22;5027;53.560;10.062;2023-03-29T16:50:49;12.40;99.90
9973;DHT22;5027;53.560;10.062;2023-03-29T16:53:16;12.40;99.90
9973;DHT22;5027;53.560;10.062;2023-03-29T16:55:47;12.50;99.90
9973;DHT22;5027;53.560;10.062;2023-03-29T16:58:13;12.40;99.90
9973;DHT22;5027;53.560;10.062;2023-03-29T17:00:41;12.50;99.90
9973;DHT22;5027;53.560;10.062;2023-03-29T17:03:09;12.50;99.90
9973;DHT22;5027;53.560;10.062;2023-03-29T17:05:36;12.50;99.90
9973;DHT22;5027;53.560;10.062;2023-03-29T17:08:07;12.50;99.90
9973;DHT22;5027;53.560;10.062;2023-03-29T17:10:38;12.50;99.90
9973;DHT22;5027;53.560;10.062;2023-03-29T17:13:05;12.50;99.90
9973;DHT22;5027;53.560;10.062;2023-03-29T17:15:32;12.50;99.90
9973;DHT22;5027;53.560;10.062;2023-03-29T17:17:59;12.50;99.90
9973;DHT22;5027;53.560;10.062;2023-03-29T17:20:25;12.50;99.90
9973;DHT22;5027;53.560;10.062;2023-03-29T17:22:52;12.50;99.90
9973;DHT22;5027;53.560;10.062;2023-03-29T17:25:21;12.60;99.90
9973;DHT22;5027;53.560;10.062;2023-03-29T17:27:49;12.50;99.90
9973;DHT22;5027;53.560;10.062;2023-03-29T17:30:16;12.50;99.90
9973;DHT22;5027;53.560;10.062;2023-03-29T17:32:43;12.50;99.90
9973;DHT22;5027;53.560;10.062;2023-03-29T17:35:11;12.50;99.90
9973;DHT22;5027;53.560;10.062;2023-03-29T17:37:38;12.50;99.90
9973;DHT22;5027;53.560;10.062;2023-03-29T17:40:05;12.60;99.90
9973;DHT22;5027;53.560;10.062;2023-03-29T17:42:40;12.50;99.90
9973;DHT22;5027;53.560;10.062;2023-03-29T17:45:09;12.50;99.90
9973;DHT22;5027;53.560;10.062;2023-03-29T17:47:37;12.60;99.90
9973;DHT22;5027;53.560;10.062;2023-03-29T17:50:05;12.60;99.90
9973;DHT22;5027;53.560;10.062;2023-03-29T17:52:32;12.60;99.90
9973;DHT22;5027;53.560;10.062;2023-03-29T17:54:59;12.60;99.90
9973;DHT22;5027;53.560;10.062;2023-03-29T17:57:25;12.50;99.90
9973;DHT22;5027;53.560;10.062;2023-03-29T17:59:52;12.50;99.90
9973;DHT22;5027;53.560;10.062;2023-03-29T18:02:21;12.50;99.90
9973;DHT22;5027;53.560;10.062;2023-03-29T18:04:49;12.50;99.90
9973;DHT22;5027;53.560;10.062;2023-03-29T18:07:16;12.50;99.90
9973;DHT22;5027;53.560;10.062;2023-03-29T18:09:43;12.50;99.90